Time;durP1;ratioP1;P1;durP2;ratioP2;P2;SDS_P1;SDS_P2;PMS_P1;PMS_P2;Temp;Humidity;BMP_temperature;BMP_pressure;BME280_temperature;BME280_humidity;BME280_pressure;Samples;Min_cycle;Max_cycle;Signal;HPM_P1;HPM_P2
2022/03/23 00:00:59;;;;;;;35.90;9.90;;;;;;;4.52;44.42;100319.78;5089795;28;20054;-83
2022/03/23 00:03:30;;;;;;;33.15;13.25;;;;;;;4.22;45.49;100326.38;5096663;28;20044;-84
2022/03/23 00:06:19;;;;;;;38.83;14.23;;;;;;;4.02;45.82;100333.03;5102529;28;20385;-83
2022/03/23 00:09:07;;;;;;;40.88;15.10;;;;;;;4.29;45.81;100323.00;5106660;28;20101;-83
2022/03/23 00:11:55;;;;;;;44.15;17.27;;;;;;;4.41;47.10;100321.38;5112817;28;20034;-83
2022/03/23 00:14:43;;;;;;;43.47;16.52;;;;;;;4.56;47.14;100325.81;5121031;28;20060;-83
2022/03/23 00:17:30;;;;;;;28.80;14.25;;;;;;;4.47;46.83;100324.03;5121010;28;20085;-83
2022/03/23 00:20:18;;;;;;;33.33;13.77;;;;;;;4.35;46.72;100310.97;5121116;28;20055;-83
2022/03/23 00:23:08;;;;;;;47.13;16.65;;;;;;;4.44;47.07;100321.41;5119001;28;20039;-83
2022/03/23 00:25:55;;;;;;;31.83;13.15;;;;;;;4.42;46.79;100312.75;5119687;28;20097;-83
2022/03/23 00:28:43;;;;;;;30.27;12.15;;;;;;;4.52;46.69;100306.84;5119304;28;20066;-83
2022/03/23 00:31:30;;;;;;;32.20;12.45;;;;;;;4.53;46.81;100311.13;5117752;28;20057;-83
2022/03/23 00:34:01;;;;;;;26.08;10.90;;;;;;;4.47;46.58;100317.13;5118992;28;20062;-84
2022/03/23 00:36:32;;;;;;;29.15;9.07;;;;;;;4.47;47.04;100308.50;5109069;28;20111;-83
2022/03/23 00:39:05;;;;;;;22.20;9.30;;;;;;;4.43;46.66;100301.56;5103524;28;20048;-83
2022/03/23 00:41:35;;;;;;;19.20;7.93;;;;;;;4.22;46.40;100310.84;5091080;28;20107;-82
2022/03/23 00:44:06;;;;;;;28.25;9.75;;;;;;;4.10;47.16;100318.50;5104166;28;20055;-82
2022/03/23 00:46:37;;;;;;;20.13;8.65;;;;;;;4.06;47.15;100317.56;5104584;28;20055;-83
2022/03/23 00:49:09;;;;;;;20.95;8.55;;;;;;;4.19;47.02;100305.63;5102513;28;20240;-87
2022/03/23 00:51:56;;;;;;;13.43;6.07;;;;;;;4.42;46.31;100313.63;5095994;28;20054;-82
2022/03/23 00:54:45;;;;;;;20.25;7.43;;;;;;;4.56;46.85;100299.94;5084252;28;20051;-88
2022/03/23 00:57:33;;;;;;;19.55;6.85;;;;;;;4.75;46.65;100297.53;5084023;28;20098;-83
2022/03/23 01:00:22;;;;;;;16.67;5.18;;;;;;;4.85;45.58;100302.78;5084415;28;20094;-86
2022/03/23 01:02:53;;;;;;;12.85;5.10;;;;;;;4.94;45.37;100297.66;5083890;28;20047;-85
2022/03/23 01:05:24;;;;;;;24.15;6.40;;;;;;;5.06;45.07;100296.88;5083801;28;20063;-87
2022/03/23 01:07:55;;;;;;;15.45;6.70;;;;;;;5.05;45.42;100296.00;5083760;28;20056;-86
2022/03/23 01:10:28;;;;;;;24.02;7.70;;;;;;;4.74;45.26;100249.22;5083423;28;20060;-84
2022/03/23 01:13:15;;;;;;;22.27;8.05;;;;;;;4.73;45.68;100244.88;5083383;28;20390;-83
2022/03/23 01:16:05;;;;;;;17.75;6.50;;;;;;;5.02;45.40;100285.66;5082980;28;20051;-81
2022/03/23 01:19:04;;;;;;;14.45;5.07;;;;;;;5.00;45.39;100282.16;5089967;28;20252;-87
2022/03/23 01:21:56;;;;;;;11.98;4.72;;;;;;;5.15;45.80;100303.00;5090293;28;20113;-88
2022/03/23 01:24:42;;;;;;;15.70;5.78;;;;;;;5.37;45.22;100288.44;5097718;28;20041;-83
2022/03/23 01:27:17;;;;;;;16.35;6.75;;;;;;;5.46;44.51;100285.00;5100173;28;20086;-87
2022/03/23 01:29:48;;;;;;;14.18;5.18;;;;;;;5.42;43.75;100270.31;5096108;28;20347;-87
2022/03/23 01:32:19;;;;;;;4.25;2.83;;;;;;;5.45;43.61;100253.91;5086959;28;20108;-86
2022/03/23 01:35:08;;;;;;;7.05;3.25;;;;;;;5.58;42.74;100261.75;5098464;28;20051;-86
2022/03/23 01:37:39;;;;;;;16.10;4.18;;;;;;;5.72;42.42;100253.16;5097365;28;20051;-86
2022/03/23 01:40:12;;;;;;;8.52;3.10;;;;;;;5.70;39.81;100279.06;5085689;28;20051;-86
2022/03/23 01:42:45;;;;;;;10.18;5.15;;;;;;;5.52;40.79;100274.69;5085983;28;20059;-87
2022/03/23 01:45:16;;;;;;;11.95;4.88;;;;;;;5.40;41.47;100261.66;5087256;28;20067;-87
2022/03/23 01:47:47;;;;;;;9.45;3.65;;;;;;;5.60;41.19;100270.38;5096264;28;20063;-87
2022/03/23 01:50:34;;;;;;;7.07;2.97;;;;;;;5.66;41.64;100246.22;5095012;28;20051;-87
2022/03/23 01:53:21;;;;;;;10.50;3.03;;;;;;;6.57;37.72;100269.75;5091820;28;20085;-86
2022/03/23 01:55:53;;;;;;;7.63;2.60;;;;;;;6.38;37.89;100277.53;5101588;28;20074;-87
2022/03/23 01:58:44;;;;;;;6.20;2.90;;;;;;;6.11;37.90;100273.16;5099358;28;20046;-87
2022/03/23 02:01:16;;;;;;;6.13;2.90;;;;;;;5.89;37.69;100277.41;5092406;28;20290;-87
2022/03/23 02:03:48;;;;;;;10.27;2.80;;;;;;;5.75;36.79;100273.91;5101163;28;20048;-87
2022/03/23 02:06:35;;;;;;;4.45;2.28;;;;;;;5.65;36.48;100278.19;5101999;28;20096;-87
2022/03/23 02:09:25;;;;;;;5.68;2.70;;;;;;;5.48;36.75;100270.34;5097564;28;20070;-86
2022/03/23 02:12:13;;;;;;;7.15;2.58;;;;;;;5.31;38.01;100246.06;5093272;28;20363;-87
2022/03/23 02:15:12;;;;;;;6.85;2.80;;;;;;;5.58;38.64;100277.28;5092620;28;20106;-86
2022/03/23 02:18:00;;;;;;;4.95;2.55;;;;;;;5.80;39.99;100273.06;5089040;28;20110;-87
2022/03/23 02:20:30;;;;;;;7.55;2.78;;;;;;;5.95;39.51;100272.28;5087856;28;20116;-87
2022/03/23 02:23:03;;;;;;;5.60;2.53;;;;;;;5.85;39.15;100273.06;5090922;28;20232;-87
2022/03/23 02:25:53;;;;;;;8.65;2.97;;;;;;;5.51;39.60;100233.19;5093465;28;20112;-87
2022/03/23 02:28:41;;;;;;;6.97;3.35;;;;;;;5.70;41.09;100267.84;5091179;28;20082;-87
2022/03/23 02:31:29;;;;;;;6.60;2.95;;;;;;;5.73;40.34;100262.66;5089213;28;20047;-86
2022/03/23 02:34:00;;;;;;;8.52;3.10;;;;;;;5.77;40.93;100261.81;5089179;28;20059;-86
2022/03/23 02:36:31;;;;;;;8.05;2.92;;;;;;;5.53;40.84;100252.22;5092291;28;20356;-86
2022/03/23 02:39:03;;;;;;;10.70;3.45;;;;;;;5.30;40.59;100244.34;5089002;28;20044;-86
2022/03/23 02:41:34;;;;;;;9.20;3.05;;;;;;;5.40;41.76;100266.84;5090018;28;20059;-86
2022/03/23 02:44:22;;;;;;;9.98;3.85;;;;;;;5.48;43.08;100270.34;5091839;28;20111;-84
2022/03/23 02:46:53;;;;;;;8.25;3.08;;;;;;;5.58;42.93;100266.91;5091042;28;20332;-85
2022/03/23 02:49:40;;;;;;;8.43;3.28;;;;;;;5.42;41.79;100259.97;5090422;28;20050;-85
2022/03/23 02:52:11;;;;;;;9.50;3.58;;;;;;;5.52;42.98;100253.94;5091089;28;20049;-85
2022/03/23 03:04:16;;;;;;;10.88;3.60;;;;;;;5.43;42.99;100272.03;5095521;28;19923;-84
2022/03/23 03:07:03;;;;;;;15.88;4.38;;;;;;;5.49;41.38;100277.28;5095028;28;20105;-85
2022/03/23 03:09:34;;;;;;;7.80;3.28;;;;;;;5.83;41.44;100272.19;5100040;28;20232;-85
2022/03/23 03:12:07;;;;;;;14.70;3.72;;;;;;;6.12;40.48;100263.66;5097547;28;20088;-85
2022/03/23 03:14:38;;;;;;;17.20;4.40;;;;;;;6.01;41.19;100261.91;5084588;28;20348;-85
2022/03/23 03:17:25;;;;;;;7.18;2.80;;;;;;;5.92;40.68;100267.06;5084883;28;20066;-84
2022/03/23 03:20:14;;;;;;;9.65;3.08;;;;;;;5.50;42.27;100221.13;5093017;28;20504;-81
2022/03/23 03:23:01;;;;;;;9.52;2.80;;;;;;;5.65;42.54;100266.97;5105179;28;20050;-85
2022/03/23 03:25:49;;;;;;;5.57;2.92;;;;;;;5.54;42.94;100265.19;5094242;28;20075;-85
2022/03/23 03:28:39;;;;;;;6.45;3.08;;;;;;;5.46;41.66;100256.50;5093364;28;20451;-84
2022/03/23 03:31:11;;;;;;;10.07;3.40;;;;;;;5.41;41.95;100263.41;5088618;28;20295;-84
2022/03/23 03:33:42;;;;;;;6.82;3.70;;;;;;;5.36;42.15;100254.72;5092971;28;20377;-84
2022/03/23 03:36:13;;;;;;;7.47;3.20;;;;;;;5.46;42.84;100266.88;5094898;28;20044;-84
2022/03/23 03:39:00;;;;;;;11.63;3.50;;;;;;;5.39;43.70;100260.81;5104630;28;20090;-83
2022/03/23 03:41:47;;;;;;;10.65;3.50;;;;;;;5.40;43.57;100256.50;5104758;28;20146;-83
2022/03/23 03:44:36;;;;;;;10.10;3.38;;;;;;;5.47;43.78;100254.81;5093094;28;20221;-83
2022/03/23 03:47:23;;;;;;;7.28;3.72;;;;;;;5.55;42.88;100261.72;5093121;28;20070;-83
2022/03/23 03:50:11;;;;;;;14.50;3.83;;;;;;;5.56;44.52;100252.22;5094949;28;20112;-83
2022/03/23 03:52:42;;;;;;;15.50;3.95;;;;;;;5.75;44.58;100258.34;5098029;28;20115;-83
2022/03/23 03:55:30;;;;;;;5.95;3.10;;;;;;;5.97;43.68;100256.72;5103154;28;20105;-83
2022/03/23 03:58:17;;;;;;;10.02;3.78;;;;;;;6.13;42.79;100255.00;5092946;28;20052;-83
2022/03/23 04:00:49;;;;;;;6.47;3.13;;;;;;;6.01;43.11;100256.69;5102417;28;20332;-83
2022/03/23 04:03:37;;;;;;;7.55;2.80;;;;;;;5.87;41.84;100245.44;5104575;28;20055;-83
2022/03/23 04:06:08;;;;;;;5.97;3.33;;;;;;;5.72;42.44;100232.44;5102788;28;20040;-83
2022/03/23 04:08:55;;;;;;;8.60;3.40;;;;;;;5.82;43.76;100229.00;5093505;28;20055;-83
2022/03/23 04:11:43;;;;;;;5.10;2.97;;;;;;;5.87;43.53;100240.25;5100242;28;20074;-83
2022/03/23 04:14:30;;;;;;;10.05;3.30;;;;;;;5.80;43.03;100230.72;5092449;28;20055;-83
2022/03/23 04:17:19;;;;;;;8.38;2.90;;;;;;;5.90;43.92;100229.88;5094452;28;20105;-84
2022/03/23 04:20:08;;;;;;;6.70;3.22;;;;;;;6.09;43.11;100255.84;5087331;28;20082;-81
2022/03/23 04:22:55;;;;;;;8.60;3.58;;;;;;;6.31;43.28;100239.44;5094677;28;20047;-84
2022/03/23 04:25:43;;;;;;;7.13;3.90;;;;;;;6.18;42.46;100242.91;5095174;28;20263;-83
2022/03/23 04:28:13;;;;;;;9.05;3.70;;;;;;;6.24;42.65;100258.47;5083630;28;20044;-82
2022/03/23 04:31:01;;;;;;;9.02;3.33;;;;;;;6.24;42.16;100248.09;5083540;28;20087;-81
2022/03/23 04:33:50;;;;;;;5.97;3.00;;;;;;;5.97;40.29;100239.44;5095896;28;20046;-83
2022/03/23 04:36:20;;;;;;;8.27;4.10;;;;;;;5.85;42.12;100247.16;5085494;28;20063;-83
2022/03/23 04:39:07;;;;;;;8.80;2.95;;;;;;;5.66;40.64;100242.75;5087397;28;20079;-80
2022/03/23 04:41:55;;;;;;;8.18;3.88;;;;;;;5.47;41.67;100237.53;5092948;28;20054;-88
2022/03/23 04:44:26;;;;;;;7.82;3.60;;;;;;;4.91;42.61;100152.63;5094306;28;20082;-83
2022/03/23 04:47:13;;;;;;;11.55;4.68;;;;;;;5.57;42.86;100241.88;5091051;28;20043;-83
2022/03/23 04:49:45;;;;;;;10.50;3.60;;;;;;;5.51;41.03;100236.66;5093655;28;20109;-83
2022/03/23 04:52:16;;;;;;;6.65;3.15;;;;;;;5.11;42.12;100207.97;5092851;28;20062;-83
2022/03/23 04:54:47;;;;;;;8.60;3.53;;;;;;;4.82;42.43;100194.00;5088636;28;20423;-84
2022/03/23 04:57:34;;;;;;;8.13;3.85;;;;;;;4.87;42.50;100226.00;5090423;28;20055;-84
2022/03/23 05:00:10;;;;;;;9.82;3.50;;;;;;;4.92;43.81;100237.25;5092410;28;20062;-83
2022/03/23 05:02:58;;;;;;;8.95;4.10;;;;;;;4.88;44.25;100240.66;5093257;28;20298;-83
2022/03/23 05:05:30;;;;;;;11.27;3.88;;;;;;;4.73;43.05;100211.22;5096662;28;20051;-81
2022/03/23 05:08:06;;;;;;;11.50;3.72;;;;;;;4.84;42.76;100238.91;5095457;28;20356;-83
2022/03/23 05:14:46;;;;;;;9.93;3.05;;;;;;;4.87;44.03;100233.75;4886118;29;20089;-83
2022/03/23 05:17:17;;;;;;;7.88;3.45;;;;;;;5.04;43.12;100232.13;4991109;28;20144;-82
2022/03/23 05:19:52;;;;;;;12.02;3.47;;;;;;;5.02;43.96;100218.31;5035405;28;20057;-82
2022/03/23 05:22:24;;;;;;;9.32;3.15;;;;;;;4.90;42.81;100233.78;5036574;28;20257;-82
2022/03/23 05:24:55;;;;;;;9.27;3.78;;;;;;;4.90;44.03;100238.94;5022999;28;20265;-82
2022/03/23 05:27:28;;;;;;;10.15;3.35;;;;;;;4.66;44.32;100230.16;5023433;28;20258;-82
2022/03/23 05:30:16;;;;;;;6.72;3.30;;;;;;;4.35;44.72;100207.50;5037722;28;20113;-81
2022/03/23 05:32:46;;;;;;;9.10;3.33;;;;;;;4.52;43.80;100231.78;5038184;28;20041;-82
2022/03/23 05:35:34;;;;;;;8.98;3.40;;;;;;;4.38;44.53;100233.41;5024822;28;20147;-82
2022/03/23 05:38:07;;;;;;;7.50;3.53;;;;;;;4.30;44.86;100244.53;5026624;28;20141;-82
2022/03/23 05:40:54;;;;;;;6.78;3.38;;;;;;;4.10;44.95;100230.56;5089588;28;20047;-81
2022/03/23 05:43:25;;;;;;;10.95;3.88;;;;;;;3.99;45.15;100229.59;5084796;28;20367;-82
2022/03/23 05:45:55;;;;;;;7.20;3.60;;;;;;;4.27;45.91;100241.94;5094414;28;20248;-81
2022/03/23 05:48:44;;;;;;;9.63;3.17;;;;;;;4.33;45.16;100247.16;5093575;28;20114;-81
2022/03/23 05:51:15;;;;;;;11.65;3.80;;;;;;;4.19;46.18;100233.22;5100028;28;20077;-82
2022/03/23 05:53:47;;;;;;;9.30;3.00;;;;;;;4.16;46.99;100227.16;5092741;28;20072;-82
2022/03/23 05:56:17;;;;;;;6.78;3.30;;;;;;;4.48;45.62;100240.38;5086322;28;20048;-82
2022/03/23 05:59:05;;;;;;;6.03;3.45;;;;;;;4.48;45.02;100240.38;5093541;28;20050;-81
2022/03/23 06:01:36;;;;;;;9.02;3.70;;;;;;;4.51;45.52;100240.41;5085793;28;20040;-82
2022/03/23 06:04:23;;;;;;;11.23;3.40;;;;;;;4.56;45.02;100240.44;5087227;28;20297;-81
2022/03/23 06:07:10;;;;;;;7.15;3.30;;;;;;;4.39;44.75;100245.47;5086261;28;20055;-81
2022/03/23 06:10:00;;;;;;;6.53;3.30;;;;;;;4.41;45.57;100228.25;5097607;28;20052;-82
2022/03/23 06:12:30;;;;;;;8.65;3.88;;;;;;;4.40;46.11;100242.03;5086772;28;20050;-82
2022/03/23 06:15:01;;;;;;;5.45;3.40;;;;;;;4.41;46.16;100243.75;5092239;28;20044;-82
2022/03/23 06:17:32;;;;;;;8.45;3.30;;;;;;;4.35;45.68;100251.47;5096918;28;20052;-81
2022/03/23 06:20:02;;;;;;;7.88;3.53;;;;;;;4.49;46.60;100255.03;5100693;28;20048;-81
2022/03/23 06:22:34;;;;;;;9.13;3.58;;;;;;;4.54;45.35;100266.28;5098525;28;20348;-82
2022/03/23 06:25:07;;;;;;;11.27;3.47;;;;;;;4.52;45.88;100249.91;5099535;28;20332;-81
2022/03/23 06:27:38;;;;;;;9.30;3.65;;;;;;;4.51;44.68;100250.75;5092580;28;20083;-81
2022/03/23 06:30:09;;;;;;;5.68;2.97;;;;;;;4.43;45.62;100267.94;5095828;28;20051;-81
2022/03/23 06:32:57;;;;;;;10.95;3.50;;;;;;;4.32;46.69;100281.63;5097657;28;20070;-82
2022/03/23 06:35:29;;;;;;;12.65;3.67;;;;;;;3.89;46.43;100239.84;5097861;28;20075;-81
2022/03/23 06:38:16;;;;;;;13.55;3.75;;;;;;;3.97;46.31;100236.44;5096214;28;20086;-81
2022/03/23 06:40:49;;;;;;;11.93;3.90;;;;;;;3.98;45.75;100264.06;5096805;28;20047;-81
2022/03/23 06:43:20;;;;;;;6.80;3.35;;;;;;;4.03;46.59;100272.72;5081394;28;20052;-81
2022/03/23 06:46:08;;;;;;;10.57;3.45;;;;;;;3.96;47.28;100283.84;5081497;28;20052;-81
2022/03/23 06:48:55;;;;;;;10.52;4.00;;;;;;;3.86;47.89;100255.31;5095127;28;20127;-82
2022/03/23 06:51:42;;;;;;;10.55;3.55;;;;;;;4.06;47.32;100262.41;5093935;28;20051;-81
2022/03/23 06:54:13;;;;;;;8.48;3.90;;;;;;;3.91;47.13;100278.63;5093385;28;20133;-81
2022/03/23 06:56:45;;;;;;;11.40;3.80;;;;;;;3.76;47.49;100266.41;5081465;28;20050;-81
2022/03/23 06:59:16;;;;;;;9.00;3.60;;;;;;;3.66;48.38;100280.94;5090320;28;20362;-81
2022/03/23 07:02:03;;;;;;;9.10;3.92;;;;;;;3.53;48.34;100291.09;5082377;28;20112;-81
2022/03/23 07:04:50;;;;;;;9.15;4.40;;;;;;;3.27;48.82;100273.56;5093169;28;20116;-82
2022/03/23 07:07:38;;;;;;;11.45;4.70;;;;;;;3.31;49.80;100295.97;5089332;28;20090;-81
2022/03/23 07:10:08;;;;;;;12.05;5.10;;;;;;;3.22;49.28;100301.00;5092680;28;20270;-81
2022/03/23 07:12:57;;;;;;;10.23;4.30;;;;;;;3.12;49.77;100294.88;5092990;28;20087;-81
2022/03/23 07:15:46;;;;;;;12.82;4.38;;;;;;;2.87;50.34;100293.66;5083780;28;20047;-81
2022/03/23 07:18:34;;;;;;;6.30;3.55;;;;;;;2.99;50.37;100304.13;5089421;28;20116;-81
2022/03/23 07:21:21;;;;;;;8.18;3.90;;;;;;;3.02;49.90;100309.34;5091212;28;20074;-81
2022/03/23 07:24:10;;;;;;;9.38;3.72;;;;;;;3.02;50.35;100305.88;5091096;28;20274;-81
2022/03/23 07:26:41;;;;;;;8.60;3.58;;;;;;;3.05;50.33;100307.69;5092278;28;20044;-81
2022/03/23 07:29:30;;;;;;;6.45;3.70;;;;;;;3.09;51.29;100304.28;5092149;28;20050;-81
2022/03/23 07:32:00;;;;;;;6.85;3.80;;;;;;;2.93;50.22;100285.97;5094474;28;20040;-80
2022/03/23 07:34:48;;;;;;;6.97;3.45;;;;;;;3.02;50.72;100301.63;5093837;28;20090;-80
2022/03/23 07:37:18;;;;;;;9.02;3.83;;;;;;;3.01;50.08;100306.75;5089138;28;20048;-80
2022/03/23 07:40:07;;;;;;;7.03;3.35;;;;;;;2.92;49.37;100297.16;5092106;28;20313;-77
2022/03/23 07:42:54;;;;;;;7.57;3.38;;;;;;;2.86;50.31;100299.63;5092421;28;20108;-78
2022/03/23 07:45:43;;;;;;;14.40;7.22;;;;;;;2.78;50.85;100301.25;5100279;28;20059;-77
2022/03/23 07:48:15;;;;;;;7.13;3.53;;;;;;;2.70;50.00;100305.41;5091887;28;20079;-78
2022/03/23 07:51:02;;;;;;;9.02;3.33;;;;;;;2.70;49.71;100305.41;5090361;28;20051;-77
2022/03/23 07:53:50;;;;;;;11.43;3.45;;;;;;;2.63;49.83;100311.31;5094184;28;20047;-77
2022/03/23 07:56:37;;;;;;;8.60;4.35;;;;;;;2.59;50.04;100310.38;5099056;28;20087;-80
2022/03/23 07:59:25;;;;;;;10.93;3.33;;;;;;;2.45;50.28;100310.16;5090369;28;20063;-77
2022/03/23 08:02:14;;;;;;;6.95;3.03;;;;;;;2.40;49.42;100311.78;5092257;28;20094;-80
2022/03/23 08:04:45;;;;;;;6.32;2.97;;;;;;;2.36;49.17;100315.16;5087948;28;20048;-79
2022/03/23 08:07:33;;;;;;;6.43;3.40;;;;;;;2.29;49.59;100313.28;5085658;28;20274;-79
2022/03/23 08:10:20;;;;;;;5.65;3.45;;;;;;;2.12;50.15;100305.25;5084052;28;20047;-80
2022/03/23 08:12:53;;;;;;;8.23;3.50;;;;;;;2.14;50.79;100324.19;5093464;28;20059;-79
2022/03/23 08:15:24;;;;;;;8.23;3.38;;;;;;;2.05;51.08;100319.75;5085562;28;20075;-79
2022/03/23 08:17:56;;;;;;;9.07;3.58;;;;;;;1.91;51.13;100310.88;5100627;28;20043;-79
2022/03/23 08:20:36;;;;;;;7.93;3.92;;;;;;;1.94;51.81;100331.53;5096633;28;20128;-79
2022/03/23 08:23:25;;;;;;;6.95;3.30;;;;;;;1.79;52.65;100326.09;5101807;28;20090;-79
2022/03/23 08:25:56;;;;;;;9.60;3.67;;;;;;;1.71;52.89;100329.38;5098996;28;20044;-79
2022/03/23 08:28:44;;;;;;;7.90;3.60;;;;;;;1.61;53.03;100332.59;5096393;22;20068;-58
2022/03/23 08:31:15;;;;;;;8.48;3.65;;;;;;;1.37;53.32;100311.47;5035142;28;20061;-55
2022/03/23 08:34:04;;;;;;;8.25;3.75;;;;;;;1.28;53.94;100313.03;5036297;28;20057;-55
2022/03/23 08:36:35;;;;;;;10.57;4.68;;;;;;;1.38;54.11;100345.00;5034112;28;20050;-56
2022/03/23 08:39:06;;;;;;;33.83;5.30;;;;;;;1.32;54.71;100346.56;5035489;28;20367;-55
2022/03/23 08:41:37;;;;;;;14.00;4.32;;;;;;;1.20;55.66;100353.19;5035288;28;20052;-54
2022/03/23 08:44:11;;;;;;;16.92;4.43;;;;;;;1.09;56.22;100357.19;5034892;28;20095;-55
2022/03/23 08:46:58;;;;;;;41.95;5.45;;;;;;;0.82;56.26;100337.72;5036127;28;20248;-55
2022/03/23 08:49:31;;;;;;;62.30;7.10;;;;;;;0.79;57.73;100358.19;5034360;28;20079;-55
2022/03/23 08:52:18;;;;;;;13.98;3.65;;;;;;;0.50;57.12;100338.59;5035064;28;20056;-56
2022/03/23 08:54:48;;;;;;;13.55;3.88;;;;;;;0.59;58.43;100369.69;5034895;28;20041;-55
2022/03/23 08:57:36;;;;;;;14.80;3.92;;;;;;;0.41;57.56;100370.94;5034768;28;20083;-56
2022/03/23 09:00:23;;;;;;;65.75;5.50;;;;;;;0.24;57.12;100377.34;5033163;28;20067;-54
2022/03/23 09:02:54;;;;;;;75.03;6.70;;;;;;;0.09;57.94;100376.94;5035355;28;20060;-56
2022/03/23 09:05:27;;;;;;;18.20;3.95;;;;;;;-0.14;58.61;100384.84;5034527;28;20045;-56
2022/03/23 09:07:57;;;;;;;21.40;4.32;;;;;;;-0.37;58.78;100386.75;5035427;28;20038;-55
2022/03/23 09:10:28;;;;;;;11.63;3.65;;;;;;;-0.85;59.56;100340.78;5035330;28;20275;-56
2022/03/23 09:13:15;;;;;;;14.50;3.88;;;;;;;-0.80;60.68;100394.81;5035361;28;20044;-56
2022/03/23 09:15:47;;;;;;;11.25;4.97;;;;;;;-1.03;61.53;100387.25;5034901;28;20055;-57
2022/03/23 09:18:18;;;;;;;14.50;6.90;;;;;;;-1.21;61.98;100396.94;5034958;28;20328;-55
2022/03/23 09:20:50;;;;;;;17.83;7.90;;;;;;;-1.31;61.84;100401.75;5034921;28;20411;-56
2022/03/23 09:23:38;;;;;;;14.52;7.25;;;;;;;-1.34;62.75;100403.34;5035272;28;20091;-56
2022/03/23 09:26:10;;;;;;;29.63;14.32;;;;;;;-1.48;62.49;100407.97;5034907;28;20053;-55
2022/03/23 09:28:41;;;;;;;39.58;15.57;;;;;;;-1.49;62.72;100420.78;5034909;28;20076;-56
2022/03/23 09:31:12;;;;;;;31.45;14.40;;;;;;;-1.87;63.01;100382.72;5035062;28;20049;-55
2022/03/23 09:33:43;;;;;;;23.48;8.70;;;;;;;-1.78;63.46;100424.03;5034803;28;20053;-55
2022/03/23 09:39:08;;;;;;;55.72;31.80;;;;;;;-2.20;63.74;100403.75;5034683;28;20251;-56
2022/03/23 09:41:39;;;;;;;15.48;8.77;;;;;;;-2.19;63.56;100427.66;5034296;28;20100;-56
2022/03/23 09:44:10;;;;;;;10.90;5.50;;;;;;;-2.24;63.48;100427.47;5034189;28;20377;-57
2022/03/23 09:46:41;;;;;;;9.00;4.32;;;;;;;-2.32;63.77;100438.22;5034267;28;20041;-57
2022/03/23 09:49:12;;;;;;;11.02;5.15;;;;;;;-2.69;64.13;100401.88;5034763;28;20048;-55
2022/03/23 09:51:46;;;;;;;11.82;5.60;;;;;;;-2.69;64.47;100437.66;5034229;28;20339;-57
2022/03/23 09:54:17;;;;;;;188.70;63.10;;;;;;;-3.38;64.78;100359.88;5033861;28;20048;-57
2022/03/23 09:56:47;;;;;;;23.13;9.85;;;;;;;-2.96;65.19;100454.47;5033651;28;20091;-55
2022/03/23 09:59:18;;;;;;;33.28;14.65;;;;;;;-3.11;65.79;100458.13;5033773;28;20045;-53
2022/03/23 10:02:27;;;;;;;13.57;7.15;;;;;;;-3.27;66.14;100459.19;5033450;28;20335;-59
2022/03/23 10:05:45;;;;;;;10.52;4.70;;;;;;;-3.37;66.68;100463.81;5033364;28;20331;-56
2022/03/23 10:08:45;;;;;;;9.05;5.10;;;;;;;-3.43;66.95;100468.66;5034319;28;20099;-54
2022/03/23 10:11:50;;;;;;;10.70;5.00;;;;;;;-3.44;67.20;100461.78;5032908;28;20068;-56
2022/03/23 10:15:13;;;;;;;11.43;4.47;;;;;;;-3.54;67.31;100471.63;5033273;28;20045;-56
2022/03/23 10:18:10;;;;;;;7.07;4.45;;;;;;;-3.73;67.84;100469.06;4983073;28;20051;-55
2022/03/23 10:20:41;;;;;;;11.82;5.00;;;;;;;-3.74;68.47;100482.66;4982686;28;20054;-58
2022/03/23 10:23:11;;;;;;;98.63;25.63;;;;;;;-3.85;68.77;100483.84;5018304;28;20053;-56
2022/03/23 10:25:44;;;;;;;45.65;13.40;;;;;;;-4.17;69.30;100427.09;5033973;28;20041;-57
2022/03/23 10:28:15;;;;;;;177.95;44.85;;;;;;;-3.79;69.48;100484.13;5033970;28;20107;-56
2022/03/23 10:30:47;;;;;;;125.57;34.40;;;;;;;-3.78;69.54;100475.66;5034035;28;20055;-57
2022/03/23 10:33:19;;;;;;;30.45;9.80;;;;;;;-3.67;69.35;100478.69;5034109;28;20053;-59
2022/03/23 10:35:51;;;;;;;13.55;6.18;;;;;;;-3.65;69.36;100485.59;5034205;28;20267;-54
2022/03/23 10:38:23;;;;;;;9.27;4.50;;;;;;;-3.64;69.56;100489.94;5033306;28;20056;-56
2022/03/23 10:40:56;;;;;;;9.93;4.85;;;;;;;-3.67;69.55;100478.69;5032506;28;20049;-54
2022/03/23 10:43:40;;;;;;;14.15;5.03;;;;;;;-4.21;69.05;100397.19;5031639;28;20351;-58
2022/03/23 10:46:13;;;;;;;12.30;5.10;;;;;;;-3.62;69.25;100503.66;5032546;28;20049;-56
2022/03/23 10:48:54;;;;;;;13.10;5.35;;;;;;;-3.62;69.08;100508.75;5032302;28;20061;-56
2022/03/23 10:51:29;;;;;;;12.90;5.63;;;;;;;-3.66;69.10;100511.97;5033191;28;20057;-54
2022/03/23 10:54:00;;;;;;;14.98;4.65;;;;;;;-3.75;69.42;100501.31;5032869;28;20068;-55
2022/03/23 10:56:34;;;;;;;14.60;5.15;;;;;;;-3.90;69.57;100479.41;5032647;28;20328;-55
2022/03/23 10:59:22;;;;;;;10.70;5.28;;;;;;;-3.64;69.13;100520.56;5032975;28;20481;-57
2022/03/23 11:02:04;;;;;;;17.23;8.15;;;;;;;-3.91;69.42;100487.88;5032353;28;20061;-53
2022/03/23 11:04:47;;;;;;;21.45;10.65;;;;;;;-3.65;69.35;100518.81;5032295;28;20076;-55
2022/03/23 11:07:28;;;;;;;55.47;25.92;;;;;;;-3.73;69.34;100515.03;5032569;28;20061;-57
2022/03/23 11:15:49;;;;;;;14.73;7.40;;;;;;;-3.47;69.53;100529.84;5036205;28;20371;-55
2022/03/23 11:18:21;;;;;;;8.23;4.60;;;;;;;-3.56;69.07;100528.56;5037271;28;20067;-55
2022/03/23 11:20:57;;;;;;;11.85;5.30;;;;;;;-3.76;68.93;100497.03;5037403;28;20047;-55
2022/03/23 11:23:30;;;;;;;12.13;5.32;;;;;;;-3.53;69.23;100534.69;5037135;28;20051;-51
2022/03/23 11:26:01;;;;;;;11.40;5.55;;;;;;;-3.50;69.29;100529.69;5036863;28;20556;-56
2022/03/23 11:28:39;;;;;;;16.50;5.15;;;;;;;-3.61;69.16;100500.28;5037135;28;20065;-54
2022/03/23 11:31:12;;;;;;;10.10;5.30;;;;;;;-3.38;69.10;100538.72;5037729;28;20053;-56
2022/03/23 11:33:45;;;;;;;10.38;5.30;;;;;;;-3.35;69.19;100534.59;5037129;28;20123;-56
2022/03/23 11:36:17;;;;;;;13.60;5.10;;;;;;;-3.72;69.01;100455.50;5036892;28;20079;-54
2022/03/23 11:38:51;;;;;;;11.40;5.20;;;;;;;-3.22;68.80;100541.16;5037327;28;20072;-53
2022/03/23 11:41:23;;;;;;;10.40;4.95;;;;;;;-3.20;68.90;100549.75;5036971;28;20252;-54
2022/03/23 11:43:55;;;;;;;10.15;5.25;;;;;;;-3.32;68.63;100536.44;5037012;28;20052;-55
2022/03/23 11:46:27;;;;;;;8.55;4.65;;;;;;;-3.21;68.74;100537.78;5036848;28;20061;-54
2022/03/23 11:49:08;;;;;;;9.77;4.35;;;;;;;-3.13;69.04;100551.75;5036855;28;20284;-54
2022/03/23 11:51:54;;;;;;;13.32;5.32;;;;;;;-3.15;69.01;100549.94;5037149;28;20061;-55
2022/03/23 11:55:37;;;;;;;15.10;5.60;;;;;;;-3.04;69.86;100557.28;5036370;28;20052;-55
2022/03/23 11:57:24;;;;;;;28.73;8.68;;;;;;;-3.07;70.12;100562.25;5036641;28;20065;-53
2022/03/23 12:00:00;;;;;;;24.08;7.80;;;;;;;-3.18;69.93;100563.47;5036470;28;20053;-52
2022/03/23 12:02:42;;;;;;;13.73;6.97;;;;;;;-3.13;70.27;100586.69;5034864;28;20057;-54
2022/03/23 12:05:35;;;;;;;10.45;5.32;;;;;;;-3.43;70.62;100530.00;5036614;28;20091;-56
2022/03/23 12:08:08;;;;;;;13.57;6.22;;;;;;;-3.12;70.17;100579.09;5036281;28;20053;-56
2022/03/23 12:10:45;;;;;;;12.38;5.57;;;;;;;-3.18;70.15;100576.25;5036551;28;20068;-54
2022/03/23 12:13:18;;;;;;;13.02;5.72;;;;;;;-3.19;69.85;100582.19;5035589;28;20209;-54
2022/03/23 12:16:03;;;;;;;15.65;6.47;;;;;;;-3.18;70.15;100578.81;5036235;28;20104;-55
2022/03/23 12:18:40;;;;;;;24.88;6.68;;;;;;;-3.21;70.57;100583.78;5036461;28;20124;-56
2022/03/23 12:21:13;;;;;;;66.68;8.57;;;;;;;-3.27;70.26;100588.59;5036099;28;20092;-54
2022/03/23 12:23:56;;;;;;;79.20;29.98;;;;;;;-3.36;70.19;100590.78;5036242;28;20275;-54
2022/03/23 12:26:33;;;;;;;40.70;15.95;;;;;;;-3.64;70.32;100602.31;5035548;28;20049;-53
2022/03/23 12:29:09;;;;;;;25.63;11.70;;;;;;;-3.76;70.79;100601.72;5036289;28;20063;-55
2022/03/23 12:31:43;;;;;;;27.35;12.65;;;;;;;-3.82;70.66;100607.44;5036117;28;20235;-57
2022/03/23 12:34:20;;;;;;;35.85;16.85;;;;;;;-3.82;70.74;100626.97;5036310;28;20054;-56
2022/03/23 12:36:59;;;;;;;34.88;17.38;;;;;;;-3.90;71.14;100606.19;5035842;28;20053;-53
2022/03/23 12:39:37;;;;;;;21.52;11.23;;;;;;;-4.03;71.50;100597.06;5036201;28;20091;-53
2022/03/23 12:42:30;;;;;;;17.65;9.43;;;;;;;-3.88;71.45;100616.47;5036461;28;20113;-53